sensor_id;sensor_type;location;lat;lon;timestamp;P1;durP1;ratioP1;P2;durP2;ratioP2
75437;SDS011;64015;49.392;15.582;2022-12-07T00:04:01;2.92;;;2.05;;
75437;SDS011;64015;49.392;15.582;2022-12-07T00:06:34;3.67;;;2.40;;
75437;SDS011;64015;49.392;15.582;2022-12-07T00:09:05;2.30;;;1.55;;
75437;SDS011;64015;49.392;15.582;2022-12-07T00:11:33;3.67;;;1.90;;
75437;SDS011;64015;49.392;15.582;2022-12-07T00:14:00;3.05;;;1.83;;
75437;SDS011;64015;49.392;15.582;2022-12-07T00:16:29;2.97;;;1.60;;
75437;SDS011;64015;49.392;15.582;2022-12-07T00:18:57;3.28;;;1.80;;
75437;SDS011;64015;49.392;15.582;2022-12-07T00:21:24;3.22;;;1.65;;
75437;SDS011;64015;49.392;15.582;2022-12-07T00:23:51;2.13;;;1.30;;
75437;SDS011;64015;49.392;15.582;2022-12-07T00:26:20;2.13;;;1.10;;
75437;SDS011;64015;49.392;15.582;2022-12-07T00:28:47;2.78;;;1.45;;
75437;SDS011;64015;49.392;15.582;2022-12-07T00:31:17;2.53;;;1.35;;
75437;SDS011;64015;49.392;15.582;2022-12-07T00:33:45;2.83;;;1.55;;
75437;SDS011;64015;49.392;15.582;2022-12-07T00:36:12;3.60;;;1.95;;
75437;SDS011;64015;49.392;15.582;2022-12-07T00:38:40;3.25;;;1.92;;
75437;SDS011;64015;49.392;15.582;2022-12-07T00:41:10;4.38;;;2.20;;
75437;SDS011;64015;49.392;15.582;2022-12-07T00:43:37;3.03;;;1.67;;
75437;SDS011;64015;49.392;15.582;2022-12-07T00:46:04;3.28;;;2.13;;
75437;SDS011;64015;49.392;15.582;2022-12-07T00:48:30;4.63;;;2.08;;
75437;SDS011;64015;49.392;15.582;2022-12-07T00:50:56;3.53;;;1.90;;
75437;SDS011;64015;49.392;15.582;2022-12-07T00:53:21;3.17;;;1.80;;
75437;SDS011;64015;49.392;15.582;2022-12-07T00:55:48;3.72;;;1.30;;
75437;SDS011;64015;49.392;15.582;2022-12-07T00:58:13;2.67;;;1.42;;
75437;SDS011;64015;49.392;15.582;2022-12-07T01:00:40;3.20;;;1.85;;
75437;SDS011;64015;49.392;15.582;2022-12-07T01:03:08;2.80;;;1.63;;
75437;SDS011;64015;49.392;15.582;2022-12-07T01:05:35;2.63;;;1.50;;
75437;SDS011;64015;49.392;15.582;2022-12-07T01:08:01;3.83;;;1.90;;
75437;SDS011;64015;49.392;15.582;2022-12-07T01:10:27;2.67;;;1.77;;
75437;SDS011;64015;49.392;15.582;2022-12-07T01:12:55;3.47;;;1.95;;
75437;SDS011;64015;49.392;15.582;2022-12-07T01:15:21;3.08;;;1.77;;
75437;SDS011;64015;49.392;15.582;2022-12-07T01:17:46;3.65;;;1.80;;
75437;SDS011;64015;49.392;15.582;2022-12-07T01:20:12;3.42;;;1.80;;
75437;SDS011;64015;49.392;15.582;2022-12-07T01:22:41;2.50;;;1.60;;
75437;SDS011;64015;49.392;15.582;2022-12-07T01:25:09;3.40;;;1.90;;
75437;SDS011;64015;49.392;15.582;2022-12-07T01:32:30;2.38;;;1.73;;
75437;SDS011;64015;49.392;15.582;2022-12-07T01:34:56;2.97;;;1.73;;
75437;SDS011;64015;49.392;15.582;2022-12-07T01:37:21;7.15;;;1.50;;
75437;SDS011;64015;49.392;15.582;2022-12-07T01:39:50;2.97;;;1.92;;
75437;SDS011;64015;49.392;15.582;2022-12-07T01:42:17;3.47;;;1.52;;
75437;SDS011;64015;49.392;15.582;2022-12-07T01:47:43;3.47;;;2.08;;
75437;SDS011;64015;49.392;15.582;2022-12-07T01:50:17;3.17;;;1.80;;
75437;SDS011;64015;49.392;15.582;2022-12-07T01:52:44;2.90;;;1.63;;
75437;SDS011;64015;49.392;15.582;2022-12-07T01:55:14;3.85;;;2.05;;
75437;SDS011;64015;49.392;15.582;2022-12-07T01:57:42;4.90;;;2.40;;
75437;SDS011;64015;49.392;15.582;2022-12-07T02:00:11;4.38;;;2.17;;
75437;SDS011;64015;49.392;15.582;2022-12-07T02:02:38;2.55;;;1.40;;
75437;SDS011;64015;49.392;15.582;2022-12-07T02:05:09;3.53;;;2.45;;
75437;SDS011;64015;49.392;15.582;2022-12-07T02:07:36;3.10;;;2.10;;
75437;SDS011;64015;49.392;15.582;2022-12-07T02:12:42;5.40;;;2.63;;
75437;SDS011;64015;49.392;15.582;2022-12-07T02:15:11;3.97;;;1.90;;
75437;SDS011;64015;49.392;15.582;2022-12-07T02:17:44;4.07;;;2.67;;
75437;SDS011;64015;49.392;15.582;2022-12-07T02:23:04;3.78;;;2.15;;
75437;SDS011;64015;49.392;15.582;2022-12-07T02:26:19;5.40;;;2.42;;
75437;SDS011;64015;49.392;15.582;2022-12-07T02:30:58;3.28;;;1.83;;
75437;SDS011;64015;49.392;15.582;2022-12-07T02:33:33;3.33;;;2.30;;
75437;SDS011;64015;49.392;15.582;2022-12-07T02:36:15;12.77;;;4.35;;
75437;SDS011;64015;49.392;15.582;2022-12-07T02:39:08;4.47;;;2.65;;
75437;SDS011;64015;49.392;15.582;2022-12-07T02:41:39;4.38;;;2.40;;
75437;SDS011;64015;49.392;15.582;2022-12-07T02:44:10;4.50;;;2.30;;
75437;SDS011;64015;49.392;15.582;2022-12-07T02:46:50;3.92;;;2.45;;
75437;SDS011;64015;49.392;15.582;2022-12-07T02:49:21;4.53;;;2.40;;
75437;SDS011;64015;49.392;15.582;2022-12-07T02:51:49;4.68;;;2.42;;
75437;SDS011;64015;49.392;15.582;2022-12-07T02:54:15;5.22;;;2.92;;
75437;SDS011;64015;49.392;15.582;2022-12-07T02:59:25;4.65;;;2.47;;
75437;SDS011;64015;49.392;15.582;2022-12-07T03:13:02;9.57;;;3.78;;
75437;SDS011;64015;49.392;15.582;2022-12-07T03:15:46;5.75;;;3.30;;
75437;SDS011;64015;49.392;15.582;2022-12-07T03:18:18;5.05;;;3.72;;
75437;SDS011;64015;49.392;15.582;2022-12-07T03:20:46;5.75;;;3.45;;
75437;SDS011;64015;49.392;15.582;2022-12-07T03:23:15;5.22;;;3.35;;
75437;SDS011;64015;49.392;15.582;2022-12-07T03:25:45;5.47;;;3.70;;
75437;SDS011;64015;49.392;15.582;2022-12-07T03:28:16;5.65;;;3.78;;
75437;SDS011;64015;49.392;15.582;2022-12-07T03:36:20;5.20;;;3.20;;
75437;SDS011;64015;49.392;15.582;2022-12-07T03:41:33;5.47;;;4.00;;
75437;SDS011;64015;49.392;15.582;2022-12-07T03:44:02;8.55;;;3.67;;
75437;SDS011;64015;49.392;15.582;2022-12-07T03:49:22;5.38;;;3.38;;
75437;SDS011;64015;49.392;15.582;2022-12-07T03:51:54;6.40;;;4.18;;
75437;SDS011;64015;49.392;15.582;2022-12-07T03:57:11;7.18;;;4.35;;
75437;SDS011;64015;49.392;15.582;2022-12-07T03:59:38;5.35;;;3.13;;
75437;SDS011;64015;49.392;15.582;2022-12-07T04:02:06;6.70;;;4.50;;
75437;SDS011;64015;49.392;15.582;2022-12-07T04:04:33;7.20;;;3.65;;
75437;SDS011;64015;49.392;15.582;2022-12-07T04:06:59;6.95;;;4.65;;
75437;SDS011;64015;49.392;15.582;2022-12-07T04:09:26;6.88;;;4.13;;
75437;SDS011;64015;49.392;15.582;2022-12-07T04:11:52;7.30;;;4.18;;
75437;SDS011;64015;49.392;15.582;2022-12-07T04:14:17;8.02;;;4.15;;
75437;SDS011;64015;49.392;15.582;2022-12-07T04:16:47;7.88;;;4.55;;
75437;SDS011;64015;49.392;15.582;2022-12-07T04:19:15;7.75;;;3.70;;
75437;SDS011;64015;49.392;15.582;2022-12-07T04:21:41;8.73;;;4.15;;
75437;SDS011;64015;49.392;15.582;2022-12-07T04:24:07;8.10;;;4.78;;
75437;SDS011;64015;49.392;15.582;2022-12-07T04:26:33;9.50;;;5.22;;
75437;SDS011;64015;49.392;15.582;2022-12-07T04:28:59;8.82;;;4.88;;
75437;SDS011;64015;49.392;15.582;2022-12-07T04:31:25;8.15;;;4.63;;
75437;SDS011;64015;49.392;15.582;2022-12-07T04:33:50;7.70;;;4.40;;
75437;SDS011;64015;49.392;15.582;2022-12-07T04:36:16;9.32;;;5.10;;
75437;SDS011;64015;49.392;15.582;2022-12-07T04:38:42;9.27;;;5.95;;
75437;SDS011;64015;49.392;15.582;2022-12-07T04:41:08;8.13;;;4.18;;
75437;SDS011;64015;49.392;15.582;2022-12-07T04:43:34;6.25;;;3.88;;
75437;SDS011;64015;49.392;15.582;2022-12-07T04:46:00;7.38;;;4.38;;
75437;SDS011;64015;49.392;15.582;2022-12-07T04:48:27;6.43;;;4.03;;
75437;SDS011;64015;49.392;15.582;2022-12-07T04:50:53;7.32;;;3.90;;
75437;SDS011;64015;49.392;15.582;2022-12-07T04:53:19;8.70;;;4.10;;
75437;SDS011;64015;49.392;15.582;2022-12-07T04:55:45;7.40;;;4.47;;
75437;SDS011;64015;49.392;15.582;2022-12-07T04:58:11;8.93;;;5.00;;
75437;SDS011;64015;49.392;15.582;2022-12-07T05:00:37;6.90;;;4.13;;
75437;SDS011;64015;49.392;15.582;2022-12-07T05:03:03;7.45;;;3.97;;
75437;SDS011;64015;49.392;15.582;2022-12-07T05:05:29;6.70;;;4.18;;
75437;SDS011;64015;49.392;15.582;2022-12-07T05:07:55;6.88;;;4.05;;
75437;SDS011;64015;49.392;15.582;2022-12-07T05:10:21;5.63;;;2.92;;
75437;SDS011;64015;49.392;15.582;2022-12-07T05:12:47;6.45;;;3.80;;
75437;SDS011;64015;49.392;15.582;2022-12-07T05:15:13;8.18;;;3.60;;
75437;SDS011;64015;49.392;15.582;2022-12-07T05:17:39;9.00;;;4.15;;
75437;SDS011;64015;49.392;15.582;2022-12-07T05:20:05;7.05;;;4.20;;
75437;SDS011;64015;49.392;15.582;2022-12-07T05:22:31;9.05;;;5.30;;
75437;SDS011;64015;49.392;15.582;2022-12-07T05:24:57;6.57;;;3.72;;
75437;SDS011;64015;49.392;15.582;2022-12-07T05:29:50;7.22;;;4.60;;
75437;SDS011;64015;49.392;15.582;2022-12-07T05:32:16;6.75;;;3.88;;
75437;SDS011;64015;49.392;15.582;2022-12-07T05:34:41;7.28;;;3.50;;
75437;SDS011;64015;49.392;15.582;2022-12-07T05:37:07;6.70;;;4.43;;
75437;SDS011;64015;49.392;15.582;2022-12-07T05:39:33;6.03;;;3.72;;
75437;SDS011;64015;49.392;15.582;2022-12-07T05:41:58;7.93;;;4.85;;
75437;SDS011;64015;49.392;15.582;2022-12-07T05:47:06;9.10;;;4.38;;
75437;SDS011;64015;49.392;15.582;2022-12-07T05:49:31;7.72;;;4.50;;
75437;SDS011;64015;49.392;15.582;2022-12-07T05:51:57;6.90;;;3.53;;
75437;SDS011;64015;49.392;15.582;2022-12-07T05:54:23;7.47;;;3.80;;
75437;SDS011;64015;49.392;15.582;2022-12-07T05:56:49;7.85;;;4.00;;
75437;SDS011;64015;49.392;15.582;2022-12-07T05:59:15;6.13;;;3.90;;
75437;SDS011;64015;49.392;15.582;2022-12-07T06:02:00;6.68;;;3.58;;
75437;SDS011;64015;49.392;15.582;2022-12-07T06:04:31;7.68;;;3.90;;
75437;SDS011;64015;49.392;15.582;2022-12-07T06:06:59;6.05;;;2.92;;
75437;SDS011;64015;49.392;15.582;2022-12-07T06:09:26;6.63;;;4.10;;
75437;SDS011;64015;49.392;15.582;2022-12-07T06:14:37;7.75;;;4.57;;
75437;SDS011;64015;49.392;15.582;2022-12-07T06:17:03;6.28;;;3.28;;
75437;SDS011;64015;49.392;15.582;2022-12-07T06:19:29;6.95;;;3.50;;
75437;SDS011;64015;49.392;15.582;2022-12-07T06:21:54;7.10;;;3.83;;
75437;SDS011;64015;49.392;15.582;2022-12-07T06:24:20;6.05;;;3.30;;
75437;SDS011;64015;49.392;15.582;2022-12-07T06:26:46;5.00;;;2.70;;
75437;SDS011;64015;49.392;15.582;2022-12-07T06:29:12;6.65;;;3.33;;
75437;SDS011;64015;49.392;15.582;2022-12-07T06:31:39;7.78;;;3.70;;
75437;SDS011;64015;49.392;15.582;2022-12-07T06:34:06;6.07;;;3.60;;
75437;SDS011;64015;49.392;15.582;2022-12-07T06:36:34;4.43;;;2.92;;
75437;SDS011;64015;49.392;15.582;2022-12-07T06:38:59;5.95;;;2.95;;
75437;SDS011;64015;49.392;15.582;2022-12-07T06:41:25;6.28;;;3.67;;
75437;SDS011;64015;49.392;15.582;2022-12-07T06:43:51;5.22;;;3.17;;
75437;SDS011;64015;49.392;15.582;2022-12-07T06:46:17;6.05;;;3.60;;
75437;SDS011;64015;49.392;15.582;2022-12-07T06:48:42;6.57;;;3.88;;
75437;SDS011;64015;49.392;15.582;2022-12-07T06:51:08;6.47;;;3.53;;
75437;SDS011;64015;49.392;15.582;2022-12-07T06:53:34;4.68;;;2.45;;
75437;SDS011;64015;49.392;15.582;2022-12-07T06:56:01;5.18;;;2.72;;
75437;SDS011;64015;49.392;15.582;2022-12-07T06:58:27;5.65;;;2.92;;
75437;SDS011;64015;49.392;15.582;2022-12-07T07:00:53;5.43;;;2.75;;
75437;SDS011;64015;49.392;15.582;2022-12-07T07:03:19;6.28;;;3.20;;
75437;SDS011;64015;49.392;15.582;2022-12-07T07:05:44;6.00;;;2.90;;
75437;SDS011;64015;49.392;15.582;2022-12-07T07:08:10;4.50;;;2.90;;
75437;SDS011;64015;49.392;15.582;2022-12-07T07:10:37;7.80;;;3.55;;
75437;SDS011;64015;49.392;15.582;2022-12-07T07:13:03;5.03;;;3.00;;
75437;SDS011;64015;49.392;15.582;2022-12-07T07:15:29;6.13;;;2.83;;
75437;SDS011;64015;49.392;15.582;2022-12-07T07:17:55;5.85;;;3.30;;
75437;SDS011;64015;49.392;15.582;2022-12-07T07:20:21;6.68;;;4.60;;
75437;SDS011;64015;49.392;15.582;2022-12-07T07:22:47;5.50;;;2.95;;
75437;SDS011;64015;49.392;15.582;2022-12-07T07:25:13;5.05;;;2.72;;
75437;SDS011;64015;49.392;15.582;2022-12-07T07:27:39;4.95;;;2.70;;
75437;SDS011;64015;49.392;15.582;2022-12-07T07:30:05;5.32;;;2.35;;
75437;SDS011;64015;49.392;15.582;2022-12-07T07:32:32;5.75;;;3.55;;
75437;SDS011;64015;49.392;15.582;2022-12-07T07:34:58;5.60;;;3.00;;
75437;SDS011;64015;49.392;15.582;2022-12-07T07:37:23;4.70;;;2.53;;
75437;SDS011;64015;49.392;15.582;2022-12-07T07:39:49;4.13;;;2.45;;
75437;SDS011;64015;49.392;15.582;2022-12-07T07:42:14;3.60;;;1.85;;
75437;SDS011;64015;49.392;15.582;2022-12-07T07:44:41;5.03;;;3.00;;
75437;SDS011;64015;49.392;15.582;2022-12-07T07:47:06;6.32;;;2.92;;
75437;SDS011;64015;49.392;15.582;2022-12-07T07:49:32;4.13;;;2.42;;
75437;SDS011;64015;49.392;15.582;2022-12-07T07:51:58;4.22;;;2.40;;
75437;SDS011;64015;49.392;15.582;2022-12-07T07:54:24;5.07;;;2.35;;
75437;SDS011;64015;49.392;15.582;2022-12-07T07:56:49;5.63;;;2.65;;
75437;SDS011;64015;49.392;15.582;2022-12-07T07:59:15;6.22;;;3.17;;
75437;SDS011;64015;49.392;15.582;2022-12-07T08:01:41;4.45;;;1.88;;
75437;SDS011;64015;49.392;15.582;2022-12-07T08:04:07;5.05;;;2.08;;
75437;SDS011;64015;49.392;15.582;2022-12-07T08:06:32;3.47;;;1.92;;
75437;SDS011;64015;49.392;15.582;2022-12-07T08:08:58;4.15;;;1.90;;
75437;SDS011;64015;49.392;15.582;2022-12-07T08:11:24;5.28;;;2.60;;
75437;SDS011;64015;49.392;15.582;2022-12-07T08:13:50;5.70;;;2.50;;
75437;SDS011;64015;49.392;15.582;2022-12-07T08:16:16;4.38;;;1.90;;
75437;SDS011;64015;49.392;15.582;2022-12-07T08:18:42;4.13;;;2.38;;
75437;SDS011;64015;49.392;15.582;2022-12-07T08:21:09;5.45;;;2.70;;
75437;SDS011;64015;49.392;15.582;2022-12-07T08:23:37;5.18;;;2.50;;
75437;SDS011;64015;49.392;15.582;2022-12-07T08:26:04;4.70;;;2.65;;
75437;SDS011;64015;49.392;15.582;2022-12-07T08:28:35;3.20;;;1.83;;
75437;SDS011;64015;49.392;15.582;2022-12-07T08:31:19;6.10;;;3.10;;
75437;SDS011;64015;49.392;15.582;2022-12-07T08:33:45;5.05;;;2.63;;
75437;SDS011;64015;49.392;15.582;2022-12-07T08:36:12;4.47;;;2.72;;
75437;SDS011;64015;49.392;15.582;2022-12-07T08:38:39;4.40;;;2.40;;
75437;SDS011;64015;49.392;15.582;2022-12-07T08:41:06;5.18;;;2.17;;
75437;SDS011;64015;49.392;15.582;2022-12-07T08:43:33;4.07;;;2.35;;
75437;SDS011;64015;49.392;15.582;2022-12-07T08:46:06;8.38;;;3.00;;
75437;SDS011;64015;49.392;15.582;2022-12-07T08:48:41;5.57;;;2.17;;
75437;SDS011;64015;49.392;15.582;2022-12-07T08:51:11;3.58;;;2.25;;
75437;SDS011;64015;49.392;15.582;2022-12-07T08:53:37;4.95;;;2.75;;
75437;SDS011;64015;49.392;15.582;2022-12-07T08:56:05;4.78;;;2.80;;
75437;SDS011;64015;49.392;15.582;2022-12-07T08:58:33;6.53;;;2.58;;
75437;SDS011;64015;49.392;15.582;2022-12-07T09:00:59;6.15;;;3.00;;
75437;SDS011;64015;49.392;15.582;2022-12-07T09:03:25;4.53;;;2.92;;
75437;SDS011;64015;49.392;15.582;2022-12-07T09:05:50;4.18;;;2.17;;
75437;SDS011;64015;49.392;15.582;2022-12-07T09:08:18;6.05;;;2.80;;
75437;SDS011;64015;49.392;15.582;2022-12-07T09:10:45;4.43;;;2.60;;
75437;SDS011;64015;49.392;15.582;2022-12-07T09:13:11;6.28;;;2.70;;
75437;SDS011;64015;49.392;15.582;2022-12-07T09:15:37;4.50;;;2.33;;
75437;SDS011;64015;49.392;15.582;2022-12-07T09:18:03;3.33;;;1.92;;
75437;SDS011;64015;49.392;15.582;2022-12-07T09:20:28;3.92;;;2.38;;
75437;SDS011;64015;49.392;15.582;2022-12-07T09:22:54;4.05;;;2.35;;
75437;SDS011;64015;49.392;15.582;2022-12-07T09:25:20;4.45;;;2.72;;
75437;SDS011;64015;49.392;15.582;2022-12-07T09:27:46;3.60;;;2.33;;
75437;SDS011;64015;49.392;15.582;2022-12-07T09:30:11;4.70;;;2.30;;
75437;SDS011;64015;49.392;15.582;2022-12-07T09:32:37;4.47;;;2.00;;
75437;SDS011;64015;49.392;15.582;2022-12-07T09:35:03;4.15;;;2.67;;
75437;SDS011;64015;49.392;15.582;2022-12-07T09:37:29;4.05;;;2.67;;
75437;SDS011;64015;49.392;15.582;2022-12-07T09:39:56;4.28;;;2.25;;
75437;SDS011;64015;49.392;15.582;2022-12-07T09:44:58;4.72;;;2.67;;
75437;SDS011;64015;49.392;15.582;2022-12-07T09:47:25;4.63;;;2.50;;
75437;SDS011;64015;49.392;15.582;2022-12-07T09:49:51;4.47;;;2.50;;
75437;SDS011;64015;49.392;15.582;2022-12-07T09:52:26;4.57;;;2.90;;
75437;SDS011;64015;49.392;15.582;2022-12-07T09:54:54;5.78;;;3.38;;
75437;SDS011;64015;49.392;15.582;2022-12-07T09:57:21;4.93;;;2.85;;
75437;SDS011;64015;49.392;15.582;2022-12-07T09:59:52;5.38;;;3.30;;
75437;SDS011;64015;49.392;15.582;2022-12-07T10:02:24;4.40;;;2.85;;
75437;SDS011;64015;49.392;15.582;2022-12-07T10:04:59;3.90;;;2.65;;
75437;SDS011;64015;49.392;15.582;2022-12-07T10:07:25;4.35;;;2.35;;
75437;SDS011;64015;49.392;15.582;2022-12-07T10:09:51;4.18;;;2.55;;
75437;SDS011;64015;49.392;15.582;2022-12-07T10:12:19;3.95;;;2.53;;
75437;SDS011;64015;49.392;15.582;2022-12-07T10:14:55;4.82;;;2.78;;
75437;SDS011;64015;49.392;15.582;2022-12-07T10:20:20;4.13;;;2.63;;
75437;SDS011;64015;49.392;15.582;2022-12-07T10:25:27;4.78;;;2.47;;
75437;SDS011;64015;49.392;15.582;2022-12-07T10:27:58;3.85;;;1.88;;
75437;SDS011;64015;49.392;15.582;2022-12-07T10:30:25;5.13;;;2.30;;
75437;SDS011;64015;49.392;15.582;2022-12-07T10:32:51;4.20;;;2.40;;
75437;SDS011;64015;49.392;15.582;2022-12-07T10:37:56;4.43;;;1.88;;
75437;SDS011;64015;49.392;15.582;2022-12-07T10:43:04;5.00;;;3.35;;
75437;SDS011;64015;49.392;15.582;2022-12-07T10:45:30;4.18;;;2.72;;
75437;SDS011;64015;49.392;15.582;2022-12-07T10:48:03;3.53;;;2.17;;
75437;SDS011;64015;49.392;15.582;2022-12-07T11:15:21;6.13;;;3.17;;
75437;SDS011;64015;49.392;15.582;2022-12-07T11:17:54;5.82;;;3.60;;
75437;SDS011;64015;49.392;15.582;2022-12-07T11:20:53;6.82;;;4.28;;
75437;SDS011;64015;49.392;15.582;2022-12-07T11:25:54;8.65;;;3.53;;
75437;SDS011;64015;49.392;15.582;2022-12-07T11:34:15;8.25;;;3.10;;
75437;SDS011;64015;49.392;15.582;2022-12-07T11:37:05;6.13;;;3.17;;
75437;SDS011;64015;49.392;15.582;2022-12-07T11:39:45;6.85;;;3.30;;
75437;SDS011;64015;49.392;15.582;2022-12-07T11:42:16;5.80;;;3.63;;
75437;SDS011;64015;49.392;15.582;2022-12-07T11:45:20;6.38;;;3.03;;
75437;SDS011;64015;49.392;15.582;2022-12-07T11:47:59;7.38;;;3.30;;
75437;SDS011;64015;49.392;15.582;2022-12-07T11:50:30;9.13;;;3.58;;
75437;SDS011;64015;49.392;15.582;2022-12-07T12:04:05;8.23;;;3.75;;
75437;SDS011;64015;49.392;15.582;2022-12-07T12:06:32;7.47;;;3.10;;
75437;SDS011;64015;49.392;15.582;2022-12-07T12:20:00;7.00;;;2.95;;
75437;SDS011;64015;49.392;15.582;2022-12-07T12:22:45;6.70;;;3.00;;
75437;SDS011;64015;49.392;15.582;2022-12-07T12:25:58;7.85;;;3.88;;
75437;SDS011;64015;49.392;15.582;2022-12-07T12:28:19;5.13;;;2.25;;
75437;SDS011;64015;49.392;15.582;2022-12-07T12:33:32;4.78;;;2.47;;
75437;SDS011;64015;49.392;15.582;2022-12-07T12:36:18;6.82;;;3.00;;
75437;SDS011;64015;49.392;15.582;2022-12-07T12:46:55;7.30;;;3.63;;
75437;SDS011;64015;49.392;15.582;2022-12-07T12:51:51;6.45;;;3.33;;
75437;SDS011;64015;49.392;15.582;2022-12-07T12:54:37;6.60;;;3.28;;
75437;SDS011;64015;49.392;15.582;2022-12-07T13:02:30;6.38;;;3.08;;
75437;SDS011;64015;49.392;15.582;2022-12-07T13:05:00;5.70;;;2.80;;
75437;SDS011;64015;49.392;15.582;2022-12-07T13:23:25;6.85;;;2.95;;
75437;SDS011;64015;49.392;15.582;2022-12-07T13:25:55;5.88;;;2.72;;
75437;SDS011;64015;49.392;15.582;2022-12-07T13:28:32;5.60;;;3.20;;
75437;SDS011;64015;49.392;15.582;2022-12-07T13:33:45;7.10;;;3.38;;
75437;SDS011;64015;49.392;15.582;2022-12-07T13:36:14;6.53;;;3.13;;
75437;SDS011;64015;49.392;15.582;2022-12-07T13:38:48;7.95;;;3.90;;
75437;SDS011;64015;49.392;15.582;2022-12-07T13:41:17;6.82;;;3.50;;
75437;SDS011;64015;49.392;15.582;2022-12-07T13:43:48;6.15;;;3.15;;
75437;SDS011;64015;49.392;15.582;2022-12-07T13:46:24;9.27;;;4.43;;
75437;SDS011;64015;49.392;15.582;2022-12-07T13:48:56;6.25;;;2.53;;
75437;SDS011;64015;49.392;15.582;2022-12-07T13:51:25;5.55;;;3.00;;
75437;SDS011;64015;49.392;15.582;2022-12-07T13:54:00;5.47;;;3.13;;
75437;SDS011;64015;49.392;15.582;2022-12-07T13:56:34;5.72;;;3.05;;
75437;SDS011;64015;49.392;15.582;2022-12-07T14:03:55;7.07;;;2.95;;
75437;SDS011;64015;49.392;15.582;2022-12-07T14:06:50;5.72;;;2.78;;
75437;SDS011;64015;49.392;15.582;2022-12-07T14:09:18;9.13;;;4.18;;
75437;SDS011;64015;49.392;15.582;2022-12-07T14:11:46;6.68;;;2.70;;
75437;SDS011;64015;49.392;15.582;2022-12-07T14:14:20;6.38;;;3.13;;
75437;SDS011;64015;49.392;15.582;2022-12-07T14:17:02;7.00;;;3.03;;
75437;SDS011;64015;49.392;15.582;2022-12-07T14:22:07;7.53;;;3.30;;
75437;SDS011;64015;49.392;15.582;2022-12-07T14:24:41;7.63;;;3.00;;
75437;SDS011;64015;49.392;15.582;2022-12-07T14:27:15;7.10;;;3.10;;
75437;SDS011;64015;49.392;15.582;2022-12-07T14:29:43;6.22;;;3.03;;
75437;SDS011;64015;49.392;15.582;2022-12-07T14:32:27;6.57;;;3.65;;
75437;SDS011;64015;49.392;15.582;2022-12-07T14:34:58;7.00;;;2.78;;
75437;SDS011;64015;49.392;15.582;2022-12-07T14:37:27;5.80;;;3.28;;
75437;SDS011;64015;49.392;15.582;2022-12-07T14:39:54;8.30;;;3.28;;
75437;SDS011;64015;49.392;15.582;2022-12-07T14:42:20;7.75;;;4.05;;
75437;SDS011;64015;49.392;15.582;2022-12-07T14:44:50;7.18;;;3.75;;
75437;SDS011;64015;49.392;15.582;2022-12-07T14:47:18;8.13;;;3.20;;
75437;SDS011;64015;49.392;15.582;2022-12-07T14:49:44;6.32;;;3.15;;
75437;SDS011;64015;49.392;15.582;2022-12-07T14:52:20;8.77;;;4.60;;
75437;SDS011;64015;49.392;15.582;2022-12-07T14:54:51;7.38;;;3.13;;
75437;SDS011;64015;49.392;15.582;2022-12-07T14:57:16;5.32;;;2.65;;
75437;SDS011;64015;49.392;15.582;2022-12-07T14:59:42;7.18;;;3.65;;
75437;SDS011;64015;49.392;15.582;2022-12-07T15:02:09;7.25;;;3.75;;
75437;SDS011;64015;49.392;15.582;2022-12-07T15:04:37;9.00;;;4.40;;
75437;SDS011;64015;49.392;15.582;2022-12-07T15:07:03;7.10;;;3.53;;
75437;SDS011;64015;49.392;15.582;2022-12-07T15:09:30;6.97;;;3.60;;
75437;SDS011;64015;49.392;15.582;2022-12-07T15:11:56;7.10;;;4.10;;
75437;SDS011;64015;49.392;15.582;2022-12-07T15:14:22;8.43;;;4.00;;
75437;SDS011;64015;49.392;15.582;2022-12-07T15:16:47;5.53;;;2.58;;
75437;SDS011;64015;49.392;15.582;2022-12-07T15:19:17;5.47;;;3.05;;
75437;SDS011;64015;49.392;15.582;2022-12-07T15:21:47;9.18;;;4.60;;
75437;SDS011;64015;49.392;15.582;2022-12-07T15:24:14;9.25;;;4.28;;
75437;SDS011;64015;49.392;15.582;2022-12-07T15:26:40;10.30;;;4.05;;
75437;SDS011;64015;49.392;15.582;2022-12-07T15:29:06;9.68;;;4.53;;
75437;SDS011;64015;49.392;15.582;2022-12-07T15:31:33;8.90;;;3.72;;
75437;SDS011;64015;49.392;15.582;2022-12-07T15:33:59;8.48;;;3.90;;
75437;SDS011;64015;49.392;15.582;2022-12-07T15:36:26;7.30;;;4.03;;
75437;SDS011;64015;49.392;15.582;2022-12-07T15:38:54;6.57;;;3.53;;
75437;SDS011;64015;49.392;15.582;2022-12-07T15:41:20;6.75;;;3.60;;
75437;SDS011;64015;49.392;15.582;2022-12-07T15:43:49;6.97;;;3.35;;
75437;SDS011;64015;49.392;15.582;2022-12-07T15:46:35;8.05;;;3.95;;
75437;SDS011;64015;49.392;15.582;2022-12-07T15:49:03;6.93;;;3.58;;
75437;SDS011;64015;49.392;15.582;2022-12-07T15:51:33;7.70;;;3.47;;
75437;SDS011;64015;49.392;15.582;2022-12-07T15:53:59;8.75;;;4.38;;
75437;SDS011;64015;49.392;15.582;2022-12-07T15:56:25;7.82;;;3.50;;
75437;SDS011;64015;49.392;15.582;2022-12-07T15:58:50;7.38;;;3.53;;
75437;SDS011;64015;49.392;15.582;2022-12-07T16:01:17;7.90;;;3.70;;
75437;SDS011;64015;49.392;15.582;2022-12-07T16:03:44;6.20;;;3.40;;
75437;SDS011;64015;49.392;15.582;2022-12-07T16:06:11;12.60;;;5.47;;
75437;SDS011;64015;49.392;15.582;2022-12-07T16:08:43;8.38;;;5.00;;
75437;SDS011;64015;49.392;15.582;2022-12-07T16:11:10;11.43;;;5.18;;
75437;SDS011;64015;49.392;15.582;2022-12-07T16:13:36;11.10;;;4.82;;
75437;SDS011;64015;49.392;15.582;2022-12-07T16:16:06;8.02;;;4.50;;
75437;SDS011;64015;49.392;15.582;2022-12-07T16:18:35;9.90;;;5.40;;
75437;SDS011;64015;49.392;15.582;2022-12-07T16:21:01;8.55;;;4.38;;
75437;SDS011;64015;49.392;15.582;2022-12-07T16:23:27;8.95;;;4.25;;
75437;SDS011;64015;49.392;15.582;2022-12-07T16:25:53;8.93;;;4.50;;
75437;SDS011;64015;49.392;15.582;2022-12-07T16:28:19;9.43;;;4.80;;
75437;SDS011;64015;49.392;15.582;2022-12-07T16:30:44;9.98;;;5.15;;
75437;SDS011;64015;49.392;15.582;2022-12-07T16:33:11;10.45;;;5.28;;
75437;SDS011;64015;49.392;15.582;2022-12-07T16:35:39;10.68;;;5.85;;
75437;SDS011;64015;49.392;15.582;2022-12-07T16:38:06;9.88;;;5.22;;
75437;SDS011;64015;49.392;15.582;2022-12-07T16:40:32;10.60;;;4.45;;
75437;SDS011;64015;49.392;15.582;2022-12-07T16:42:58;10.95;;;4.70;;
75437;SDS011;64015;49.392;15.582;2022-12-07T16:45:24;9.13;;;4.65;;
75437;SDS011;64015;49.392;15.582;2022-12-07T16:47:50;13.55;;;6.40;;
75437;SDS011;64015;49.392;15.582;2022-12-07T16:50:15;9.40;;;4.80;;
75437;SDS011;64015;49.392;15.582;2022-12-07T16:52:41;9.75;;;4.35;;
75437;SDS011;64015;49.392;15.582;2022-12-07T16:55:07;11.95;;;5.75;;
75437;SDS011;64015;49.392;15.582;2022-12-07T16:57:33;10.93;;;5.63;;
75437;SDS011;64015;49.392;15.582;2022-12-07T16:59:59;11.48;;;6.18;;
75437;SDS011;64015;49.392;15.582;2022-12-07T17:02:25;10.50;;;4.40;;
75437;SDS011;64015;49.392;15.582;2022-12-07T17:04:51;12.90;;;5.40;;
75437;SDS011;64015;49.392;15.582;2022-12-07T17:07:16;11.25;;;5.43;;
75437;SDS011;64015;49.392;15.582;2022-12-07T17:09:42;11.40;;;6.03;;
75437;SDS011;64015;49.392;15.582;2022-12-07T17:12:08;9.57;;;5.15;;
75437;SDS011;64015;49.392;15.582;2022-12-07T17:14:33;13.07;;;5.30;;
75437;SDS011;64015;49.392;15.582;2022-12-07T17:17:18;10.90;;;4.75;;
75437;SDS011;64015;49.392;15.582;2022-12-07T17:19:44;12.88;;;6.45;;
75437;SDS011;64015;49.392;15.582;2022-12-07T17:22:10;9.25;;;5.22;;
75437;SDS011;64015;49.392;15.582;2022-12-07T17:24:37;11.07;;;5.57;;
75437;SDS011;64015;49.392;15.582;2022-12-07T17:27:10;10.38;;;5.40;;
75437;SDS011;64015;49.392;15.582;2022-12-07T17:29:37;10.30;;;5.90;;